sensor_id;sensor_type;location;lat;lon;timestamp;temperature;humidity
19340;HTU21D;9804;52.350;6.684;2023-06-10T00:02:21;22.72;-6.00
19340;HTU21D;9804;52.350;6.684;2023-06-10T00:04:46;22.81;-6.00
19340;HTU21D;9804;52.350;6.684;2023-06-10T00:07:12;22.73;-6.00
19340;HTU21D;9804;52.350;6.684;2023-06-10T00:09:38;22.95;-6.00
19340;HTU21D;9804;52.350;6.684;2023-06-10T00:12:08;22.83;-6.00
19340;HTU21D;9804;52.350;6.684;2023-06-10T00:14:37;22.67;-6.00
19340;HTU21D;9804;52.350;6.684;2023-06-10T00:17:02;22.70;-6.00
19340;HTU21D;9804;52.350;6.684;2023-06-10T00:19:28;22.61;-6.00
19340;HTU21D;9804;52.350;6.684;2023-06-10T00:21:56;22.71;-6.00
19340;HTU21D;9804;52.350;6.684;2023-06-10T00:24:21;22.60;-6.00
19340;HTU21D;9804;52.350;6.684;2023-06-10T00:26:47;22.48;-6.00
19340;HTU21D;9804;52.350;6.684;2023-06-10T00:29:13;22.55;-6.00
19340;HTU21D;9804;52.350;6.684;2023-06-10T00:31:39;22.42;-6.00
19340;HTU21D;9804;52.350;6.684;2023-06-10T00:34:04;22.49;-6.00
19340;HTU21D;9804;52.350;6.684;2023-06-10T00:36:30;22.46;-6.00
19340;HTU21D;9804;52.350;6.684;2023-06-10T00:38:56;22.37;-6.00
19340;HTU21D;9804;52.350;6.684;2023-06-10T00:41:21;22.34;-6.00
19340;HTU21D;9804;52.350;6.684;2023-06-10T00:43:47;22.35;-6.00
19340;HTU21D;9804;52.350;6.684;2023-06-10T00:46:12;22.35;-6.00
19340;HTU21D;9804;52.350;6.684;2023-06-10T00:48:40;22.33;-6.00
19340;HTU21D;9804;52.350;6.684;2023-06-10T00:51:05;22.23;-6.00
19340;HTU21D;9804;52.350;6.684;2023-06-10T00:53:32;22.19;-6.00
19340;HTU21D;9804;52.350;6.684;2023-06-10T00:55:57;22.05;-6.00
19340;HTU21D;9804;52.350;6.684;2023-06-10T00:58:24;21.96;-6.00
19340;HTU21D;9804;52.350;6.684;2023-06-10T01:00:51;21.93;-6.00
19340;HTU21D;9804;52.350;6.684;2023-06-10T01:03:16;21.98;-6.00
19340;HTU21D;9804;52.350;6.684;2023-06-10T01:05:42;22.05;-6.00
19340;HTU21D;9804;52.350;6.684;2023-06-10T01:08:22;22.02;-6.00
19340;HTU21D;9804;52.350;6.684;2023-06-10T01:10:54;22.01;-6.00
19340;HTU21D;9804;52.350;6.684;2023-06-10T01:13:23;21.89;-6.00
19340;HTU21D;9804;52.350;6.684;2023-06-10T01:15:50;21.79;-6.00
19340;HTU21D;9804;52.350;6.684;2023-06-10T01:18:16;21.74;-6.00
19340;HTU21D;9804;52.350;6.684;2023-06-10T01:20:43;21.64;-6.00
19340;HTU21D;9804;52.350;6.684;2023-06-10T01:23:12;21.75;-6.00
19340;HTU21D;9804;52.350;6.684;2023-06-10T01:25:41;21.75;-6.00
19340;HTU21D;9804;52.350;6.684;2023-06-10T01:28:14;21.76;-6.00
19340;HTU21D;9804;52.350;6.684;2023-06-10T01:33:28;21.66;-6.00
19340;HTU21D;9804;52.350;6.684;2023-06-10T01:35:56;21.70;-6.00
19340;HTU21D;9804;52.350;6.684;2023-06-10T01:38:23;21.62;-6.00
19340;HTU21D;9804;52.350;6.684;2023-06-10T01:40:52;21.31;-6.00
19340;HTU21D;9804;52.350;6.684;2023-06-10T01:43:20;21.35;-6.00
19340;HTU21D;9804;52.350;6.684;2023-06-10T01:45:45;21.19;-6.00
19340;HTU21D;9804;52.350;6.684;2023-06-10T01:48:11;21.21;-6.00
19340;HTU21D;9804;52.350;6.684;2023-06-10T01:50:36;20.99;-6.00
19340;HTU21D;9804;52.350;6.684;2023-06-10T01:53:03;21.23;-6.00
19340;HTU21D;9804;52.350;6.684;2023-06-10T01:55:28;21.22;-6.00
19340;HTU21D;9804;52.350;6.684;2023-06-10T01:57:54;21.24;-6.00
19340;HTU21D;9804;52.350;6.684;2023-06-10T02:00:19;21.17;-6.00
19340;HTU21D;9804;52.350;6.684;2023-06-10T02:02:44;21.04;-6.00
19340;HTU21D;9804;52.350;6.684;2023-06-10T02:05:10;21.06;-6.00
19340;HTU21D;9804;52.350;6.684;2023-06-10T02:07:35;20.99;-6.00
19340;HTU21D;9804;52.350;6.684;2023-06-10T02:10:00;20.93;-6.00
19340;HTU21D;9804;52.350;6.684;2023-06-10T02:12:26;20.95;-6.00
19340;HTU21D;9804;52.350;6.684;2023-06-10T02:14:51;20.96;-6.00
19340;HTU21D;9804;52.350;6.684;2023-06-10T02:17:17;20.77;-6.00
19340;HTU21D;9804;52.350;6.684;2023-06-10T02:19:43;20.63;-6.00
19340;HTU21D;9804;52.350;6.684;2023-06-10T02:22:09;20.69;-6.00
19340;HTU21D;9804;52.350;6.684;2023-06-10T02:24:36;20.76;-6.00
19340;HTU21D;9804;52.350;6.684;2023-06-10T02:27:04;20.65;-6.00
19340;HTU21D;9804;52.350;6.684;2023-06-10T02:29:33;20.58;-6.00
19340;HTU21D;9804;52.350;6.684;2023-06-10T02:31:58;20.49;-6.00
19340;HTU21D;9804;52.350;6.684;2023-06-10T02:34:24;20.37;-6.00
19340;HTU21D;9804;52.350;6.684;2023-06-10T02:36:49;20.62;-6.00
19340;HTU21D;9804;52.350;6.684;2023-06-10T02:39:16;20.47;-6.00
19340;HTU21D;9804;52.350;6.684;2023-06-10T02:41:41;20.47;-6.00
19340;HTU21D;9804;52.350;6.684;2023-06-10T02:44:07;20.37;-6.00
19340;HTU21D;9804;52.350;6.684;2023-06-10T02:46:32;20.35;-6.00
19340;HTU21D;9804;52.350;6.684;2023-06-10T02:48:57;20.56;-6.00
19340;HTU21D;9804;52.350;6.684;2023-06-10T02:51:23;20.32;-6.00
19340;HTU21D;9804;52.350;6.684;2023-06-10T02:53:48;20.26;-6.00
19340;HTU21D;9804;52.350;6.684;2023-06-10T02:56:16;20.29;-6.00
19340;HTU21D;9804;52.350;6.684;2023-06-10T02:58:41;20.48;-6.00
19340;HTU21D;9804;52.350;6.684;2023-06-10T03:01:07;20.15;-6.00
19340;HTU21D;9804;52.350;6.684;2023-06-10T03:03:34;20.27;-6.00
19340;HTU21D;9804;52.350;6.684;2023-06-10T03:06:02;20.31;-6.00
19340;HTU21D;9804;52.350;6.684;2023-06-10T03:08:28;20.27;-6.00
19340;HTU21D;9804;52.350;6.684;2023-06-10T03:10:53;20.17;-6.00
19340;HTU21D;9804;52.350;6.684;2023-06-10T03:13:19;20.24;-6.00
19340;HTU21D;9804;52.350;6.684;2023-06-10T03:15:44;20.14;-6.00
19340;HTU21D;9804;52.350;6.684;2023-06-10T03:18:11;19.92;-6.00
19340;HTU21D;9804;52.350;6.684;2023-06-10T03:20:36;20.20;-6.00
19340;HTU21D;9804;52.350;6.684;2023-06-10T03:23:03;20.15;-6.00
19340;HTU21D;9804;52.350;6.684;2023-06-10T03:25:29;20.15;-6.00
19340;HTU21D;9804;52.350;6.684;2023-06-10T03:27:56;19.89;-6.00
19340;HTU21D;9804;52.350;6.684;2023-06-10T03:30:21;19.97;-6.00
19340;HTU21D;9804;52.350;6.684;2023-06-10T03:32:46;20.05;-6.00
19340;HTU21D;9804;52.350;6.684;2023-06-10T03:35:12;20.01;-6.00
19340;HTU21D;9804;52.350;6.684;2023-06-10T03:37:37;20.25;-6.00
19340;HTU21D;9804;52.350;6.684;2023-06-10T03:40:03;20.24;-6.00
19340;HTU21D;9804;52.350;6.684;2023-06-10T03:42:28;20.01;-6.00
19340;HTU21D;9804;52.350;6.684;2023-06-10T03:44:54;20.18;-6.00
19340;HTU21D;9804;52.350;6.684;2023-06-10T03:47:20;20.20;-6.00
19340;HTU21D;9804;52.350;6.684;2023-06-10T03:49:46;19.82;-6.00
19340;HTU21D;9804;52.350;6.684;2023-06-10T03:52:11;20.21;-6.00
19340;HTU21D;9804;52.350;6.684;2023-06-10T03:54:37;20.21;-6.00
19340;HTU21D;9804;52.350;6.684;2023-06-10T03:57:02;19.98;-6.00
19340;HTU21D;9804;52.350;6.684;2023-06-10T03:59:28;20.03;-6.00
19340;HTU21D;9804;52.350;6.684;2023-06-10T04:01:54;19.89;-6.00
19340;HTU21D;9804;52.350;6.684;2023-06-10T04:04:19;20.11;-6.00
19340;HTU21D;9804;52.350;6.684;2023-06-10T04:06:45;20.07;-6.00
19340;HTU21D;9804;52.350;6.684;2023-06-10T04:09:11;20.24;-6.00
19340;HTU21D;9804;52.350;6.684;2023-06-10T04:11:36;20.46;-6.00
19340;HTU21D;9804;52.350;6.684;2023-06-10T04:14:02;20.21;-6.00
19340;HTU21D;9804;52.350;6.684;2023-06-10T04:16:28;20.03;-6.00
19340;HTU21D;9804;52.350;6.684;2023-06-10T04:18:53;20.20;-6.00
19340;HTU21D;9804;52.350;6.684;2023-06-10T04:21:19;20.35;-6.00
19340;HTU21D;9804;52.350;6.684;2023-06-10T04:23:44;20.84;-6.00
19340;HTU21D;9804;52.350;6.684;2023-06-10T04:26:10;20.89;-6.00
19340;HTU21D;9804;52.350;6.684;2023-06-10T04:28:37;21.57;-6.00
19340;HTU21D;9804;52.350;6.684;2023-06-10T04:31:02;21.72;-6.00
19340;HTU21D;9804;52.350;6.684;2023-06-10T04:33:30;21.73;-6.00
19340;HTU21D;9804;52.350;6.684;2023-06-10T04:35:55;22.23;-6.00
19340;HTU21D;9804;52.350;6.684;2023-06-10T04:38:21;22.19;-6.00
19340;HTU21D;9804;52.350;6.684;2023-06-10T04:40:46;21.87;-6.00
19340;HTU21D;9804;52.350;6.684;2023-06-10T04:43:11;22.41;-6.00
19340;HTU21D;9804;52.350;6.684;2023-06-10T04:45:38;22.48;-6.00
19340;HTU21D;9804;52.350;6.684;2023-06-10T04:48:05;22.93;-6.00
19340;HTU21D;9804;52.350;6.684;2023-06-10T04:50:30;23.05;-6.00
19340;HTU21D;9804;52.350;6.684;2023-06-10T04:52:58;22.65;-6.00
19340;HTU21D;9804;52.350;6.684;2023-06-10T04:55:23;22.21;-6.00
19340;HTU21D;9804;52.350;6.684;2023-06-10T04:57:49;21.88;-6.00
19340;HTU21D;9804;52.350;6.684;2023-06-10T05:00:15;21.80;-6.00
19340;HTU21D;9804;52.350;6.684;2023-06-10T05:02:41;21.95;-6.00
19340;HTU21D;9804;52.350;6.684;2023-06-10T05:05:06;21.43;-6.00
19340;HTU21D;9804;52.350;6.684;2023-06-10T05:07:32;21.48;-6.00
19340;HTU21D;9804;52.350;6.684;2023-06-10T05:09:57;21.58;-6.00
19340;HTU21D;9804;52.350;6.684;2023-06-10T05:12:22;21.37;-6.00
19340;HTU21D;9804;52.350;6.684;2023-06-10T05:14:48;21.52;-6.00
19340;HTU21D;9804;52.350;6.684;2023-06-10T05:17:13;21.50;-6.00
19340;HTU21D;9804;52.350;6.684;2023-06-10T05:19:39;21.17;-6.00
19340;HTU21D;9804;52.350;6.684;2023-06-10T05:22:04;21.36;-6.00
19340;HTU21D;9804;52.350;6.684;2023-06-10T05:24:30;21.66;-6.00
19340;HTU21D;9804;52.350;6.684;2023-06-10T05:26:55;21.22;-6.00
19340;HTU21D;9804;52.350;6.684;2023-06-10T05:29:20;21.27;-6.00
19340;HTU21D;9804;52.350;6.684;2023-06-10T05:31:46;21.57;-6.00
19340;HTU21D;9804;52.350;6.684;2023-06-10T05:34:11;21.57;-6.00
19340;HTU21D;9804;52.350;6.684;2023-06-10T05:36:37;21.67;-6.00
19340;HTU21D;9804;52.350;6.684;2023-06-10T05:39:02;21.48;-6.00
19340;HTU21D;9804;52.350;6.684;2023-06-10T05:41:28;21.79;-6.00
19340;HTU21D;9804;52.350;6.684;2023-06-10T05:43:53;21.43;-6.00
19340;HTU21D;9804;52.350;6.684;2023-06-10T05:46:19;21.52;-6.00
19340;HTU21D;9804;52.350;6.684;2023-06-10T05:48:45;21.50;-6.00
19340;HTU21D;9804;52.350;6.684;2023-06-10T05:51:10;21.67;-6.00
19340;HTU21D;9804;52.350;6.684;2023-06-10T05:53:35;21.89;-6.00
19340;HTU21D;9804;52.350;6.684;2023-06-10T05:56:01;21.93;-6.00
19340;HTU21D;9804;52.350;6.684;2023-06-10T05:58:26;21.70;-6.00
19340;HTU21D;9804;52.350;6.684;2023-06-10T06:00:52;21.76;-6.00
19340;HTU21D;9804;52.350;6.684;2023-06-10T06:03:17;22.14;-6.00
19340;HTU21D;9804;52.350;6.684;2023-06-10T06:05:42;21.91;-6.00
19340;HTU21D;9804;52.350;6.684;2023-06-10T06:08:09;21.87;-6.00
19340;HTU21D;9804;52.350;6.684;2023-06-10T06:10:34;22.09;-6.00
19340;HTU21D;9804;52.350;6.684;2023-06-10T06:13:00;22.31;-6.00
19340;HTU21D;9804;52.350;6.684;2023-06-10T06:15:26;22.51;-6.00
19340;HTU21D;9804;52.350;6.684;2023-06-10T06:17:51;22.37;-6.00
19340;HTU21D;9804;52.350;6.684;2023-06-10T06:20:22;22.57;-6.00
19340;HTU21D;9804;52.350;6.684;2023-06-10T06:22:47;22.36;-6.00
19340;HTU21D;9804;52.350;6.684;2023-06-10T06:25:13;22.42;-6.00
19340;HTU21D;9804;52.350;6.684;2023-06-10T06:27:38;22.35;-6.00
19340;HTU21D;9804;52.350;6.684;2023-06-10T06:30:04;22.43;-6.00
19340;HTU21D;9804;52.350;6.684;2023-06-10T06:32:30;22.65;-6.00
19340;HTU21D;9804;52.350;6.684;2023-06-10T06:34:55;22.53;-6.00
19340;HTU21D;9804;52.350;6.684;2023-06-10T06:37:24;22.53;-6.00
19340;HTU21D;9804;52.350;6.684;2023-06-10T06:39:53;22.70;-6.00
19340;HTU21D;9804;52.350;6.684;2023-06-10T06:42:20;22.84;-6.00
19340;HTU21D;9804;52.350;6.684;2023-06-10T06:44:46;22.81;-6.00
19340;HTU21D;9804;52.350;6.684;2023-06-10T06:47:12;22.76;-6.00
19340;HTU21D;9804;52.350;6.684;2023-06-10T06:49:37;22.80;-6.00
19340;HTU21D;9804;52.350;6.684;2023-06-10T06:52:03;22.84;-6.00
19340;HTU21D;9804;52.350;6.684;2023-06-10T06:54:28;23.05;-6.00
19340;HTU21D;9804;52.350;6.684;2023-06-10T06:56:54;23.23;-6.00
19340;HTU21D;9804;52.350;6.684;2023-06-10T06:59:19;23.12;-6.00
19340;HTU21D;9804;52.350;6.684;2023-06-10T07:01:46;23.31;-6.00
19340;HTU21D;9804;52.350;6.684;2023-06-10T07:04:11;23.29;-6.00
19340;HTU21D;9804;52.350;6.684;2023-06-10T07:06:37;23.36;-6.00
19340;HTU21D;9804;52.350;6.684;2023-06-10T07:09:03;23.26;-6.00
19340;HTU21D;9804;52.350;6.684;2023-06-10T07:11:29;23.55;-6.00
19340;HTU21D;9804;52.350;6.684;2023-06-10T07:13:54;23.47;-6.00
19340;HTU21D;9804;52.350;6.684;2023-06-10T07:16:19;23.68;-6.00
19340;HTU21D;9804;52.350;6.684;2023-06-10T07:18:46;23.72;-6.00
19340;HTU21D;9804;52.350;6.684;2023-06-10T07:21:11;23.75;-6.00
19340;HTU21D;9804;52.350;6.684;2023-06-10T07:23:37;24.00;-6.00
19340;HTU21D;9804;52.350;6.684;2023-06-10T07:26:02;24.00;-6.00
19340;HTU21D;9804;52.350;6.684;2023-06-10T07:28:28;24.05;-6.00
19340;HTU21D;9804;52.350;6.684;2023-06-10T07:30:53;24.29;-6.00
19340;HTU21D;9804;52.350;6.684;2023-06-10T07:33:18;24.38;-6.00
19340;HTU21D;9804;52.350;6.684;2023-06-10T07:35:44;24.65;-6.00
19340;HTU21D;9804;52.350;6.684;2023-06-10T07:38:09;24.63;-6.00
19340;HTU21D;9804;52.350;6.684;2023-06-10T07:40:35;24.54;-6.00
19340;HTU21D;9804;52.350;6.684;2023-06-10T07:43:00;24.73;-6.00
19340;HTU21D;9804;52.350;6.684;2023-06-10T07:45:25;24.83;-6.00
19340;HTU21D;9804;52.350;6.684;2023-06-10T07:47:51;24.80;-6.00
19340;HTU21D;9804;52.350;6.684;2023-06-10T07:50:16;24.73;-6.00
19340;HTU21D;9804;52.350;6.684;2023-06-10T07:52:42;24.89;-6.00
19340;HTU21D;9804;52.350;6.684;2023-06-10T07:55:07;25.13;-6.00
19340;HTU21D;9804;52.350;6.684;2023-06-10T07:57:32;25.18;-6.00
19340;HTU21D;9804;52.350;6.684;2023-06-10T08:00:02;25.18;-6.00
19340;HTU21D;9804;52.350;6.684;2023-06-10T08:02:29;25.09;-6.00
19340;HTU21D;9804;52.350;6.684;2023-06-10T08:04:55;25.14;-6.00
19340;HTU21D;9804;52.350;6.684;2023-06-10T08:07:20;25.38;-6.00
19340;HTU21D;9804;52.350;6.684;2023-06-10T08:09:45;25.34;-6.00
19340;HTU21D;9804;52.350;6.684;2023-06-10T08:12:11;25.51;-6.00
19340;HTU21D;9804;52.350;6.684;2023-06-10T08:14:36;25.86;-6.00
19340;HTU21D;9804;52.350;6.684;2023-06-10T08:17:02;25.59;-6.00
19340;HTU21D;9804;52.350;6.684;2023-06-10T08:19:30;25.80;-6.00
19340;HTU21D;9804;52.350;6.684;2023-06-10T08:21:56;25.73;-6.00
19340;HTU21D;9804;52.350;6.684;2023-06-10T08:24:21;25.84;-6.00
19340;HTU21D;9804;52.350;6.684;2023-06-10T08:26:46;26.08;-6.00
19340;HTU21D;9804;52.350;6.684;2023-06-10T08:29:12;25.95;-6.00
19340;HTU21D;9804;52.350;6.684;2023-06-10T08:31:41;26.22;-6.00
19340;HTU21D;9804;52.350;6.684;2023-06-10T08:34:06;26.40;-6.00
19340;HTU21D;9804;52.350;6.684;2023-06-10T08:36:32;26.75;-6.00
19340;HTU21D;9804;52.350;6.684;2023-06-10T08:38:57;26.43;-6.00
19340;HTU21D;9804;52.350;6.684;2023-06-10T08:41:25;26.47;-6.00
19340;HTU21D;9804;52.350;6.684;2023-06-10T08:44:13;26.39;-6.00
19340;HTU21D;9804;52.350;6.684;2023-06-10T08:46:45;26.33;-6.00
19340;HTU21D;9804;52.350;6.684;2023-06-10T08:49:14;26.64;-6.00
19340;HTU21D;9804;52.350;6.684;2023-06-10T08:51:41;26.77;-6.00
19340;HTU21D;9804;52.350;6.684;2023-06-10T08:54:17;27.05;-6.00
19340;HTU21D;9804;52.350;6.684;2023-06-10T08:56:44;27.38;-6.00
19340;HTU21D;9804;52.350;6.684;2023-06-10T08:59:13;27.40;-6.00
19340;HTU21D;9804;52.350;6.684;2023-06-10T09:01:38;27.44;-6.00
19340;HTU21D;9804;52.350;6.684;2023-06-10T09:04:04;27.55;-6.00
19340;HTU21D;9804;52.350;6.684;2023-06-10T09:06:32;27.26;-6.00
19340;HTU21D;9804;52.350;6.684;2023-06-10T09:08:58;27.26;-6.00
19340;HTU21D;9804;52.350;6.684;2023-06-10T09:11:24;27.20;-6.00
19340;HTU21D;9804;52.350;6.684;2023-06-10T09:13:50;27.43;-6.00
19340;HTU21D;9804;52.350;6.684;2023-06-10T09:16:16;27.40;-6.00
19340;HTU21D;9804;52.350;6.684;2023-06-10T09:18:42;28.10;-6.00
19340;HTU21D;9804;52.350;6.684;2023-06-10T09:21:07;27.76;-6.00
19340;HTU21D;9804;52.350;6.684;2023-06-10T09:23:33;27.98;-6.00
19340;HTU21D;9804;52.350;6.684;2023-06-10T09:25:59;28.11;-6.00
19340;HTU21D;9804;52.350;6.684;2023-06-10T09:28:24;27.84;-6.00
19340;HTU21D;9804;52.350;6.684;2023-06-10T09:31:02;28.06;-6.00
19340;HTU21D;9804;52.350;6.684;2023-06-10T09:33:27;28.01;-6.00
19340;HTU21D;9804;52.350;6.684;2023-06-10T09:35:53;28.42;-6.00
19340;HTU21D;9804;52.350;6.684;2023-06-10T09:38:21;28.37;-6.00
19340;HTU21D;9804;52.350;6.684;2023-06-10T09:43:15;28.46;-6.00
19340;HTU21D;9804;52.350;6.684;2023-06-10T09:45:41;29.01;-6.00
19340;HTU21D;9804;52.350;6.684;2023-06-10T09:48:08;28.53;-6.00
19340;HTU21D;9804;52.350;6.684;2023-06-10T09:50:33;28.54;-6.00
19340;HTU21D;9804;52.350;6.684;2023-06-10T09:53:00;28.60;-6.00
19340;HTU21D;9804;52.350;6.684;2023-06-10T09:55:28;28.69;-6.00
19340;HTU21D;9804;52.350;6.684;2023-06-10T09:57:54;28.80;-6.00
19340;HTU21D;9804;52.350;6.684;2023-06-10T10:00:19;28.70;-6.00
19340;HTU21D;9804;52.350;6.684;2023-06-10T10:02:51;28.90;-6.00
19340;HTU21D;9804;52.350;6.684;2023-06-10T10:05:18;29.36;-6.00
19340;HTU21D;9804;52.350;6.684;2023-06-10T10:07:45;29.31;-6.00
19340;HTU21D;9804;52.350;6.684;2023-06-10T10:10:12;29.66;-6.00
19340;HTU21D;9804;52.350;6.684;2023-06-10T10:12:39;29.67;-6.00
19340;HTU21D;9804;52.350;6.684;2023-06-10T10:15:09;29.49;-6.00
19340;HTU21D;9804;52.350;6.684;2023-06-10T10:17:42;29.52;-6.00
19340;HTU21D;9804;52.350;6.684;2023-06-10T10:20:12;29.74;-6.00
19340;HTU21D;9804;52.350;6.684;2023-06-10T10:22:39;29.54;-6.00
19340;HTU21D;9804;52.350;6.684;2023-06-10T10:25:15;29.45;-6.00
19340;HTU21D;9804;52.350;6.684;2023-06-10T10:27:51;29.77;-6.00
19340;HTU21D;9804;52.350;6.684;2023-06-10T10:30:19;29.82;-6.00
19340;HTU21D;9804;52.350;6.684;2023-06-10T10:33:00;29.93;-6.00
19340;HTU21D;9804;52.350;6.684;2023-06-10T10:35:30;30.18;-6.00
19340;HTU21D;9804;52.350;6.684;2023-06-10T10:37:58;30.17;-6.00
19340;HTU21D;9804;52.350;6.684;2023-06-10T10:40:25;30.31;-6.00
19340;HTU21D;9804;52.350;6.684;2023-06-10T10:42:51;30.37;-6.00
19340;HTU21D;9804;52.350;6.684;2023-06-10T10:45:18;30.33;-6.00
19340;HTU21D;9804;52.350;6.684;2023-06-10T10:47:45;30.50;-6.00
19340;HTU21D;9804;52.350;6.684;2023-06-10T10:50:18;30.66;-6.00
19340;HTU21D;9804;52.350;6.684;2023-06-10T10:52:56;30.25;-6.00
19340;HTU21D;9804;52.350;6.684;2023-06-10T10:55:24;30.46;-6.00
19340;HTU21D;9804;52.350;6.684;2023-06-10T10:57:56;30.52;-6.00
19340;HTU21D;9804;52.350;6.684;2023-06-10T11:00:33;30.38;-6.00
19340;HTU21D;9804;52.350;6.684;2023-06-10T11:05:44;30.55;-6.00
19340;HTU21D;9804;52.350;6.684;2023-06-10T11:08:13;31.00;-6.00
19340;HTU21D;9804;52.350;6.684;2023-06-10T11:10:51;31.26;-6.00
19340;HTU21D;9804;52.350;6.684;2023-06-10T11:13:19;31.04;-6.00
19340;HTU21D;9804;52.350;6.684;2023-06-10T11:15:47;30.98;-6.00
19340;HTU21D;9804;52.350;6.684;2023-06-10T11:18:21;31.07;-6.00
19340;HTU21D;9804;52.350;6.684;2023-06-10T11:20:51;31.08;-6.00
19340;HTU21D;9804;52.350;6.684;2023-06-10T11:31:19;31.80;-6.00
19340;HTU21D;9804;52.350;6.684;2023-06-10T11:33:46;31.74;-6.00
19340;HTU21D;9804;52.350;6.684;2023-06-10T11:36:12;31.81;-6.00
19340;HTU21D;9804;52.350;6.684;2023-06-10T11:38:38;31.76;-6.00
19340;HTU21D;9804;52.350;6.684;2023-06-10T11:41:04;32.10;-6.00
19340;HTU21D;9804;52.350;6.684;2023-06-10T11:43:29;31.87;-6.00
19340;HTU21D;9804;52.350;6.684;2023-06-10T11:45:55;32.09;-6.00
19340;HTU21D;9804;52.350;6.684;2023-06-10T11:48:21;31.71;-6.00
19340;HTU21D;9804;52.350;6.684;2023-06-10T11:50:46;31.61;-6.00
19340;HTU21D;9804;52.350;6.684;2023-06-10T11:53:12;32.01;-6.00
19340;HTU21D;9804;52.350;6.684;2023-06-10T11:55:48;31.98;-6.00
19340;HTU21D;9804;52.350;6.684;2023-06-10T11:58:14;32.00;-6.00
19340;HTU21D;9804;52.350;6.684;2023-06-10T12:00:50;32.11;-6.00
19340;HTU21D;9804;52.350;6.684;2023-06-10T12:03:17;32.57;-6.00
19340;HTU21D;9804;52.350;6.684;2023-06-10T12:05:59;32.54;-6.00
19340;HTU21D;9804;52.350;6.684;2023-06-10T12:08:26;32.48;-6.00
19340;HTU21D;9804;52.350;6.684;2023-06-10T12:10:51;32.38;-6.00
19340;HTU21D;9804;52.350;6.684;2023-06-10T12:13:16;32.37;-6.00
19340;HTU21D;9804;52.350;6.684;2023-06-10T12:15:43;32.18;-6.00
19340;HTU21D;9804;52.350;6.684;2023-06-10T12:18:16;32.28;-6.00
19340;HTU21D;9804;52.350;6.684;2023-06-10T12:20:42;32.54;-6.00
19340;HTU21D;9804;52.350;6.684;2023-06-10T12:23:11;32.49;-6.00
19340;HTU21D;9804;52.350;6.684;2023-06-10T12:25:37;32.53;-6.00
19340;HTU21D;9804;52.350;6.684;2023-06-10T12:28:03;32.47;-6.00
19340;HTU21D;9804;52.350;6.684;2023-06-10T12:30:29;32.88;-6.00
19340;HTU21D;9804;52.350;6.684;2023-06-10T12:32:55;32.45;-6.00
19340;HTU21D;9804;52.350;6.684;2023-06-10T12:35:22;32.40;-6.00
19340;HTU21D;9804;52.350;6.684;2023-06-10T12:38:03;32.17;-6.00
19340;HTU21D;9804;52.350;6.684;2023-06-10T12:40:33;32.77;-6.00
19340;HTU21D;9804;52.350;6.684;2023-06-10T12:42:59;32.76;-6.00
19340;HTU21D;9804;52.350;6.684;2023-06-10T12:45:33;32.77;-6.00
19340;HTU21D;9804;52.350;6.684;2023-06-10T12:50:42;32.78;-6.00
19340;HTU21D;9804;52.350;6.684;2023-06-10T12:53:09;32.61;-6.00
19340;HTU21D;9804;52.350;6.684;2023-06-10T12:55:37;32.94;-6.00
19340;HTU21D;9804;52.350;6.684;2023-06-10T12:58:02;33.18;-6.00
19340;HTU21D;9804;52.350;6.684;2023-06-10T13:00:28;33.35;-6.00
19340;HTU21D;9804;52.350;6.684;2023-06-10T13:03:00;33.17;-6.00
19340;HTU21D;9804;52.350;6.684;2023-06-10T13:05:26;33.19;-6.00
19340;HTU21D;9804;52.350;6.684;2023-06-10T13:07:51;33.43;-6.00
19340;HTU21D;9804;52.350;6.684;2023-06-10T13:10:17;32.68;-6.00
19340;HTU21D;9804;52.350;6.684;2023-06-10T13:12:43;33.11;-6.00
19340;HTU21D;9804;52.350;6.684;2023-06-10T13:15:09;33.58;-6.00
19340;HTU21D;9804;52.350;6.684;2023-06-10T13:17:34;33.66;-6.00
19340;HTU21D;9804;52.350;6.684;2023-06-10T13:20:02;33.86;-6.00
19340;HTU21D;9804;52.350;6.684;2023-06-10T13:22:30;34.03;-6.00
19340;HTU21D;9804;52.350;6.684;2023-06-10T13:25:06;33.94;-6.00
19340;HTU21D;9804;52.350;6.684;2023-06-10T13:27:33;33.59;-6.00
19340;HTU21D;9804;52.350;6.684;2023-06-10T13:29:59;33.57;-6.00
19340;HTU21D;9804;52.350;6.684;2023-06-10T13:32:24;33.70;-6.00
19340;HTU21D;9804;52.350;6.684;2023-06-10T13:34:50;33.74;-6.00
19340;HTU21D;9804;52.350;6.684;2023-06-10T13:37:16;33.72;-6.00
19340;HTU21D;9804;52.350;6.684;2023-06-10T13:39:44;33.94;-6.00
19340;HTU21D;9804;52.350;6.684;2023-06-10T13:42:12;33.42;-6.00
19340;HTU21D;9804;52.350;6.684;2023-06-10T13:44:37;32.82;-6.00
19340;HTU21D;9804;52.350;6.684;2023-06-10T13:47:03;33.46;-6.00
19340;HTU21D;9804;52.350;6.684;2023-06-10T13:49:29;33.74;-6.00
19340;HTU21D;9804;52.350;6.684;2023-06-10T13:51:54;34.25;-6.00
19340;HTU21D;9804;52.350;6.684;2023-06-10T13:54:19;33.95;-6.00
19340;HTU21D;9804;52.350;6.684;2023-06-10T13:56:46;33.92;-6.00
19340;HTU21D;9804;52.350;6.684;2023-06-10T13:59:11;33.76;-6.00
19340;HTU21D;9804;52.350;6.684;2023-06-10T14:01:37;34.41;-6.00
19340;HTU21D;9804;52.350;6.684;2023-06-10T14:04:03;34.44;-6.00
19340;HTU21D;9804;52.350;6.684;2023-06-10T14:06:28;33.89;-6.00
19340;HTU21D;9804;52.350;6.684;2023-06-10T14:08:53;34.12;-6.00
19340;HTU21D;9804;52.350;6.684;2023-06-10T14:11:20;34.12;-6.00
19340;HTU21D;9804;52.350;6.684;2023-06-10T14:13:46;34.40;-6.00
19340;HTU21D;9804;52.350;6.684;2023-06-10T14:16:11;34.68;-6.00
19340;HTU21D;9804;52.350;6.684;2023-06-10T14:18:37;34.73;-6.00
19340;HTU21D;9804;52.350;6.684;2023-06-10T14:21:02;35.36;-6.00
19340;HTU21D;9804;52.350;6.684;2023-06-10T14:23:27;35.22;-6.00
19340;HTU21D;9804;52.350;6.684;2023-06-10T14:25:53;34.47;-6.00
19340;HTU21D;9804;52.350;6.684;2023-06-10T14:28:18;34.39;-6.00
19340;HTU21D;9804;52.350;6.684;2023-06-10T14:30:43;34.94;-6.00
19340;HTU21D;9804;52.350;6.684;2023-06-10T14:33:09;35.50;-6.00
19340;HTU21D;9804;52.350;6.684;2023-06-10T14:35:34;35.70;-6.00
19340;HTU21D;9804;52.350;6.684;2023-06-10T14:38:00;35.65;-6.00
19340;HTU21D;9804;52.350;6.684;2023-06-10T14:40:25;35.58;-6.00
19340;HTU21D;9804;52.350;6.684;2023-06-10T14:42:53;35.03;-6.00
19340;HTU21D;9804;52.350;6.684;2023-06-10T14:45:19;35.28;-6.00
19340;HTU21D;9804;52.350;6.684;2023-06-10T14:47:44;35.79;-6.00
19340;HTU21D;9804;52.350;6.684;2023-06-10T14:50:10;35.13;-6.00
19340;HTU21D;9804;52.350;6.684;2023-06-10T14:52:36;35.53;-6.00
19340;HTU21D;9804;52.350;6.684;2023-06-10T14:55:01;35.18;-6.00
19340;HTU21D;9804;52.350;6.684;2023-06-10T14:57:26;35.93;-6.00
19340;HTU21D;9804;52.350;6.684;2023-06-10T14:59:52;35.35;-6.00
19340;HTU21D;9804;52.350;6.684;2023-06-10T15:02:17;35.67;-6.00
19340;HTU21D;9804;52.350;6.684;2023-06-10T15:04:42;36.31;-6.00
19340;HTU21D;9804;52.350;6.684;2023-06-10T15:07:08;36.29;-6.00
19340;HTU21D;9804;52.350;6.684;2023-06-10T15:09:33;36.52;-6.00
19340;HTU21D;9804;52.350;6.684;2023-06-10T15:11:59;35.72;-6.00
19340;HTU21D;9804;52.350;6.684;2023-06-10T15:14:28;35.86;-6.00
19340;HTU21D;9804;52.350;6.684;2023-06-10T15:16:53;36.91;-6.00
19340;HTU21D;9804;52.350;6.684;2023-06-10T15:19:20;36.36;-6.00
19340;HTU21D;9804;52.350;6.684;2023-06-10T15:21:46;36.11;-6.00
19340;HTU21D;9804;52.350;6.684;2023-06-10T15:24:11;36.06;-6.00
19340;HTU21D;9804;52.350;6.684;2023-06-10T15:26:37;36.67;-6.00
19340;HTU21D;9804;52.350;6.684;2023-06-10T15:29:02;36.92;-6.00
19340;HTU21D;9804;52.350;6.684;2023-06-10T15:31:30;36.88;-6.00
19340;HTU21D;9804;52.350;6.684;2023-06-10T15:33:57;36.93;-6.00
19340;HTU21D;9804;52.350;6.684;2023-06-10T15:36:22;37.30;-6.00
19340;HTU21D;9804;52.350;6.684;2023-06-10T15:38:48;36.13;-6.00
19340;HTU21D;9804;52.350;6.684;2023-06-10T15:41:13;35.86;-6.00
19340;HTU21D;9804;52.350;6.684;2023-06-10T15:43:38;36.63;-6.00
19340;HTU21D;9804;52.350;6.684;2023-06-10T15:46:05;36.14;-6.00